sensor_id;sensor_type;location;lat;lon;timestamp;P1;durP1;ratioP1;P2;durP2;ratioP2
68377;SDS011;55322;48.146;11.516;2022-07-29T00:01:04;4.00;;;1.00;;
68377;SDS011;55322;48.146;11.516;2022-07-29T00:03:29;5.27;;;1.17;;
68377;SDS011;55322;48.146;11.516;2022-07-29T00:05:54;4.30;;;1.07;;
68377;SDS011;55322;48.146;11.516;2022-07-29T00:08:20;4.27;;;1.17;;
68377;SDS011;55322;48.146;11.516;2022-07-29T00:10:45;8.70;;;1.20;;
68377;SDS011;55322;48.146;11.516;2022-07-29T00:13:11;5.93;;;1.40;;
68377;SDS011;55322;48.146;11.516;2022-07-29T00:15:36;3.90;;;1.13;;
68377;SDS011;55322;48.146;11.516;2022-07-29T00:18:02;4.70;;;1.40;;
68377;SDS011;55322;48.146;11.516;2022-07-29T00:20:27;4.63;;;1.37;;
68377;SDS011;55322;48.146;11.516;2022-07-29T00:22:53;5.43;;;1.60;;
68377;SDS011;55322;48.146;11.516;2022-07-29T00:25:18;4.80;;;1.33;;
68377;SDS011;55322;48.146;11.516;2022-07-29T00:27:44;6.17;;;1.67;;
68377;SDS011;55322;48.146;11.516;2022-07-29T00:30:11;6.57;;;1.70;;
68377;SDS011;55322;48.146;11.516;2022-07-29T00:32:36;4.97;;;1.73;;
68377;SDS011;55322;48.146;11.516;2022-07-29T00:35:02;6.17;;;1.50;;
68377;SDS011;55322;48.146;11.516;2022-07-29T00:37:46;5.45;;;1.65;;
68377;SDS011;55322;48.146;11.516;2022-07-29T00:40:11;6.77;;;1.57;;
68377;SDS011;55322;48.146;11.516;2022-07-29T00:42:46;4.33;;;1.30;;
68377;SDS011;55322;48.146;11.516;2022-07-29T00:45:13;5.75;;;1.30;;
68377;SDS011;55322;48.146;11.516;2022-07-29T00:47:39;5.65;;;1.50;;
68377;SDS011;55322;48.146;11.516;2022-07-29T00:50:05;5.10;;;1.50;;
68377;SDS011;55322;48.146;11.516;2022-07-29T00:52:32;4.63;;;1.42;;
68377;SDS011;55322;48.146;11.516;2022-07-29T00:54:58;5.00;;;1.30;;
68377;SDS011;55322;48.146;11.516;2022-07-29T00:57:24;5.87;;;1.40;;
68377;SDS011;55322;48.146;11.516;2022-07-29T00:59:49;4.73;;;1.20;;
68377;SDS011;55322;48.146;11.516;2022-07-29T01:02:14;4.67;;;1.10;;
68377;SDS011;55322;48.146;11.516;2022-07-29T01:04:40;4.68;;;1.30;;
68377;SDS011;55322;48.146;11.516;2022-07-29T01:07:06;4.13;;;1.10;;
68377;SDS011;55322;48.146;11.516;2022-07-29T01:09:32;4.32;;;1.00;;
68377;SDS011;55322;48.146;11.516;2022-07-29T01:11:58;4.40;;;1.20;;
68377;SDS011;55322;48.146;11.516;2022-07-29T01:14:25;4.55;;;1.17;;
68377;SDS011;55322;48.146;11.516;2022-07-29T01:17:08;3.73;;;0.83;;
68377;SDS011;55322;48.146;11.516;2022-07-29T01:19:56;4.28;;;1.27;;
68377;SDS011;55322;48.146;11.516;2022-07-29T01:31:03;4.03;;;0.80;;
68377;SDS011;55322;48.146;11.516;2022-07-29T01:33:30;4.28;;;1.02;;
68377;SDS011;55322;48.146;11.516;2022-07-29T01:36:35;4.18;;;1.00;;
68377;SDS011;55322;48.146;11.516;2022-07-29T01:39:06;4.20;;;0.82;;
68377;SDS011;55322;48.146;11.516;2022-07-29T01:41:35;3.90;;;0.83;;
68377;SDS011;55322;48.146;11.516;2022-07-29T01:44:13;3.55;;;0.80;;
68377;SDS011;55322;48.146;11.516;2022-07-29T01:46:45;3.65;;;0.80;;
68377;SDS011;55322;48.146;11.516;2022-07-29T01:49:18;3.45;;;0.80;;
68377;SDS011;55322;48.146;11.516;2022-07-29T01:51:50;3.63;;;0.82;;
68377;SDS011;55322;48.146;11.516;2022-07-29T01:54:19;5.53;;;1.00;;
68377;SDS011;55322;48.146;11.516;2022-07-29T01:56:55;3.67;;;0.82;;
68377;SDS011;55322;48.146;11.516;2022-07-29T01:59:21;4.65;;;1.00;;
68377;SDS011;55322;48.146;11.516;2022-07-29T02:01:49;4.03;;;0.80;;
68377;SDS011;55322;48.146;11.516;2022-07-29T02:04:18;3.70;;;0.90;;
68377;SDS011;55322;48.146;11.516;2022-07-29T02:06:45;3.80;;;0.90;;
68377;SDS011;55322;48.146;11.516;2022-07-29T02:09:14;3.72;;;0.75;;
68377;SDS011;55322;48.146;11.516;2022-07-29T02:11:40;4.15;;;1.05;;
68377;SDS011;55322;48.146;11.516;2022-07-29T02:14:13;2.92;;;0.68;;
68377;SDS011;55322;48.146;11.516;2022-07-29T02:16:40;5.20;;;1.10;;
68377;SDS011;55322;48.146;11.516;2022-07-29T02:19:07;4.03;;;0.90;;
68377;SDS011;55322;48.146;11.516;2022-07-29T02:21:33;4.45;;;1.10;;
68377;SDS011;55322;48.146;11.516;2022-07-29T02:24:00;5.05;;;0.93;;
68377;SDS011;55322;48.146;11.516;2022-07-29T02:26:27;4.25;;;0.98;;
68377;SDS011;55322;48.146;11.516;2022-07-29T02:28:56;3.83;;;0.90;;
68377;SDS011;55322;48.146;11.516;2022-07-29T02:31:24;3.60;;;0.80;;
68377;SDS011;55322;48.146;11.516;2022-07-29T02:33:51;3.95;;;1.00;;
68377;SDS011;55322;48.146;11.516;2022-07-29T02:36:18;5.18;;;1.20;;
68377;SDS011;55322;48.146;11.516;2022-07-29T02:38:46;4.07;;;0.93;;
68377;SDS011;55322;48.146;11.516;2022-07-29T02:44:06;4.87;;;1.00;;
68377;SDS011;55322;48.146;11.516;2022-07-29T02:46:37;3.97;;;1.00;;
68377;SDS011;55322;48.146;11.516;2022-07-29T02:49:11;3.67;;;0.80;;
68377;SDS011;55322;48.146;11.516;2022-07-29T02:57:32;4.10;;;0.97;;
68377;SDS011;55322;48.146;11.516;2022-07-29T03:00:05;4.07;;;0.80;;
68377;SDS011;55322;48.146;11.516;2022-07-29T03:02:33;3.78;;;0.90;;
68377;SDS011;55322;48.146;11.516;2022-07-29T03:05:02;4.22;;;0.98;;
68377;SDS011;55322;48.146;11.516;2022-07-29T03:07:28;4.43;;;1.00;;
68377;SDS011;55322;48.146;11.516;2022-07-29T03:09:54;5.70;;;1.00;;
68377;SDS011;55322;48.146;11.516;2022-07-29T03:12:21;4.00;;;0.90;;
68377;SDS011;55322;48.146;11.516;2022-07-29T03:14:47;4.22;;;0.85;;
68377;SDS011;55322;48.146;11.516;2022-07-29T03:17:13;3.70;;;0.83;;
68377;SDS011;55322;48.146;11.516;2022-07-29T03:19:39;3.80;;;0.88;;
68377;SDS011;55322;48.146;11.516;2022-07-29T03:22:05;4.57;;;0.82;;
68377;SDS011;55322;48.146;11.516;2022-07-29T03:24:32;4.93;;;0.70;;
68377;SDS011;55322;48.146;11.516;2022-07-29T03:26:59;4.40;;;1.02;;
68377;SDS011;55322;48.146;11.516;2022-07-29T03:29:25;4.65;;;0.70;;
68377;SDS011;55322;48.146;11.516;2022-07-29T03:31:51;4.10;;;1.00;;
68377;SDS011;55322;48.146;11.516;2022-07-29T03:34:17;3.67;;;0.90;;
68377;SDS011;55322;48.146;11.516;2022-07-29T03:36:43;4.20;;;0.90;;
68377;SDS011;55322;48.146;11.516;2022-07-29T03:39:08;5.70;;;1.00;;
68377;SDS011;55322;48.146;11.516;2022-07-29T03:41:35;4.57;;;1.20;;
68377;SDS011;55322;48.146;11.516;2022-07-29T03:44:02;4.23;;;0.90;;
68377;SDS011;55322;48.146;11.516;2022-07-29T03:46:28;6.15;;;1.00;;
68377;SDS011;55322;48.146;11.516;2022-07-29T03:48:58;5.25;;;1.00;;
68377;SDS011;55322;48.146;11.516;2022-07-29T03:51:25;3.90;;;0.90;;
68377;SDS011;55322;48.146;11.516;2022-07-29T03:53:51;5.07;;;1.10;;
68377;SDS011;55322;48.146;11.516;2022-07-29T03:56:17;4.63;;;1.20;;
68377;SDS011;55322;48.146;11.516;2022-07-29T03:58:47;5.13;;;1.30;;
68377;SDS011;55322;48.146;11.516;2022-07-29T04:01:14;4.15;;;0.98;;
68377;SDS011;55322;48.146;11.516;2022-07-29T04:03:42;4.10;;;1.00;;
68377;SDS011;55322;48.146;11.516;2022-07-29T04:06:10;4.05;;;0.75;;
68377;SDS011;55322;48.146;11.516;2022-07-29T04:08:35;4.97;;;0.88;;
68377;SDS011;55322;48.146;11.516;2022-07-29T04:11:01;3.70;;;0.80;;
68377;SDS011;55322;48.146;11.516;2022-07-29T04:13:26;5.07;;;1.10;;
68377;SDS011;55322;48.146;11.516;2022-07-29T04:15:52;5.10;;;1.20;;
68377;SDS011;55322;48.146;11.516;2022-07-29T04:18:17;4.33;;;0.90;;
68377;SDS011;55322;48.146;11.516;2022-07-29T04:20:42;4.27;;;1.00;;
68377;SDS011;55322;48.146;11.516;2022-07-29T04:23:08;6.53;;;0.90;;
68377;SDS011;55322;48.146;11.516;2022-07-29T04:25:36;4.07;;;0.90;;
68377;SDS011;55322;48.146;11.516;2022-07-29T04:28:03;4.35;;;1.10;;
68377;SDS011;55322;48.146;11.516;2022-07-29T04:30:29;4.30;;;1.10;;
68377;SDS011;55322;48.146;11.516;2022-07-29T04:32:55;5.97;;;0.90;;
68377;SDS011;55322;48.146;11.516;2022-07-29T04:35:21;4.00;;;0.97;;
68377;SDS011;55322;48.146;11.516;2022-07-29T04:37:46;5.63;;;1.20;;
68377;SDS011;55322;48.146;11.516;2022-07-29T04:40:12;4.63;;;1.02;;
68377;SDS011;55322;48.146;11.516;2022-07-29T04:42:38;4.50;;;1.10;;
68377;SDS011;55322;48.146;11.516;2022-07-29T04:45:03;4.30;;;1.20;;
68377;SDS011;55322;48.146;11.516;2022-07-29T04:47:29;4.77;;;1.10;;
68377;SDS011;55322;48.146;11.516;2022-07-29T04:49:54;4.40;;;1.10;;
68377;SDS011;55322;48.146;11.516;2022-07-29T04:52:21;5.20;;;1.20;;
68377;SDS011;55322;48.146;11.516;2022-07-29T04:54:47;4.85;;;1.30;;
68377;SDS011;55322;48.146;11.516;2022-07-29T04:57:12;6.40;;;1.30;;
68377;SDS011;55322;48.146;11.516;2022-07-29T04:59:38;5.63;;;1.10;;
68377;SDS011;55322;48.146;11.516;2022-07-29T05:02:03;4.33;;;1.20;;
68377;SDS011;55322;48.146;11.516;2022-07-29T05:04:28;4.60;;;1.30;;
68377;SDS011;55322;48.146;11.516;2022-07-29T05:06:54;5.10;;;1.20;;
68377;SDS011;55322;48.146;11.516;2022-07-29T05:09:19;5.57;;;1.37;;
68377;SDS011;55322;48.146;11.516;2022-07-29T05:11:44;4.33;;;1.10;;
68377;SDS011;55322;48.146;11.516;2022-07-29T05:14:09;4.20;;;1.20;;
68377;SDS011;55322;48.146;11.516;2022-07-29T05:16:35;5.40;;;1.50;;
68377;SDS011;55322;48.146;11.516;2022-07-29T05:19:00;5.65;;;1.20;;
68377;SDS011;55322;48.146;11.516;2022-07-29T05:21:26;5.37;;;1.30;;
68377;SDS011;55322;48.146;11.516;2022-07-29T05:23:51;6.20;;;1.40;;
68377;SDS011;55322;48.146;11.516;2022-07-29T05:26:17;5.53;;;1.65;;
68377;SDS011;55322;48.146;11.516;2022-07-29T05:28:42;6.47;;;1.40;;
68377;SDS011;55322;48.146;11.516;2022-07-29T05:31:08;8.27;;;1.60;;
68377;SDS011;55322;48.146;11.516;2022-07-29T05:33:33;4.47;;;1.20;;
68377;SDS011;55322;48.146;11.516;2022-07-29T05:35:59;7.05;;;1.20;;
68377;SDS011;55322;48.146;11.516;2022-07-29T05:38:24;4.33;;;1.27;;
68377;SDS011;55322;48.146;11.516;2022-07-29T05:40:49;4.50;;;1.20;;
68377;SDS011;55322;48.146;11.516;2022-07-29T05:43:15;4.53;;;1.10;;
68377;SDS011;55322;48.146;11.516;2022-07-29T05:45:40;6.90;;;1.40;;
68377;SDS011;55322;48.146;11.516;2022-07-29T05:48:05;5.33;;;1.57;;
68377;SDS011;55322;48.146;11.516;2022-07-29T05:50:31;6.20;;;1.40;;
68377;SDS011;55322;48.146;11.516;2022-07-29T05:52:56;5.20;;;1.50;;
68377;SDS011;55322;48.146;11.516;2022-07-29T05:55:21;4.57;;;1.40;;
68377;SDS011;55322;48.146;11.516;2022-07-29T05:57:46;4.20;;;1.27;;
68377;SDS011;55322;48.146;11.516;2022-07-29T06:00:12;4.37;;;1.40;;
68377;SDS011;55322;48.146;11.516;2022-07-29T06:02:37;6.77;;;1.27;;
68377;SDS011;55322;48.146;11.516;2022-07-29T06:05:03;8.20;;;1.73;;
68377;SDS011;55322;48.146;11.516;2022-07-29T06:07:28;5.32;;;1.50;;
68377;SDS011;55322;48.146;11.516;2022-07-29T06:09:53;4.50;;;1.40;;
68377;SDS011;55322;48.146;11.516;2022-07-29T06:12:19;4.90;;;1.47;;
68377;SDS011;55322;48.146;11.516;2022-07-29T06:14:44;6.07;;;1.30;;
68377;SDS011;55322;48.146;11.516;2022-07-29T06:17:10;5.37;;;1.90;;
68377;SDS011;55322;48.146;11.516;2022-07-29T06:19:36;5.20;;;1.60;;
68377;SDS011;55322;48.146;11.516;2022-07-29T06:22:02;5.57;;;1.65;;
68377;SDS011;55322;48.146;11.516;2022-07-29T06:24:28;6.65;;;1.48;;
68377;SDS011;55322;48.146;11.516;2022-07-29T06:26:53;4.37;;;1.67;;
68377;SDS011;55322;48.146;11.516;2022-07-29T06:29:19;4.97;;;1.80;;
68377;SDS011;55322;48.146;11.516;2022-07-29T06:31:44;4.70;;;1.70;;
68377;SDS011;55322;48.146;11.516;2022-07-29T06:34:10;7.30;;;1.50;;
68377;SDS011;55322;48.146;11.516;2022-07-29T06:36:35;4.82;;;1.40;;
68377;SDS011;55322;48.146;11.516;2022-07-29T06:39:03;4.72;;;1.42;;
68377;SDS011;55322;48.146;11.516;2022-07-29T06:41:30;4.77;;;1.53;;
68377;SDS011;55322;48.146;11.516;2022-07-29T06:43:56;5.63;;;1.63;;
68377;SDS011;55322;48.146;11.516;2022-07-29T06:46:21;7.47;;;1.50;;
68377;SDS011;55322;48.146;11.516;2022-07-29T06:48:47;5.93;;;1.70;;
68377;SDS011;55322;48.146;11.516;2022-07-29T06:51:12;4.33;;;1.30;;
68377;SDS011;55322;48.146;11.516;2022-07-29T06:53:38;5.15;;;1.70;;
68377;SDS011;55322;48.146;11.516;2022-07-29T06:56:05;6.17;;;1.67;;
68377;SDS011;55322;48.146;11.516;2022-07-29T06:58:33;4.40;;;1.25;;
68377;SDS011;55322;48.146;11.516;2022-07-29T07:01:01;4.80;;;1.42;;
68377;SDS011;55322;48.146;11.516;2022-07-29T07:03:28;4.93;;;1.40;;
68377;SDS011;55322;48.146;11.516;2022-07-29T07:05:53;5.53;;;1.37;;
68377;SDS011;55322;48.146;11.516;2022-07-29T07:08:19;4.80;;;1.60;;
68377;SDS011;55322;48.146;11.516;2022-07-29T07:10:46;4.38;;;1.20;;
68377;SDS011;55322;48.146;11.516;2022-07-29T07:13:13;4.57;;;1.30;;
68377;SDS011;55322;48.146;11.516;2022-07-29T07:15:39;5.55;;;1.50;;
68377;SDS011;55322;48.146;11.516;2022-07-29T07:18:04;4.70;;;1.50;;
68377;SDS011;55322;48.146;11.516;2022-07-29T07:20:31;4.93;;;1.52;;
68377;SDS011;55322;48.146;11.516;2022-07-29T07:22:57;5.63;;;1.40;;
68377;SDS011;55322;48.146;11.516;2022-07-29T07:25:22;6.93;;;1.30;;
68377;SDS011;55322;48.146;11.516;2022-07-29T07:27:47;5.20;;;1.37;;
68377;SDS011;55322;48.146;11.516;2022-07-29T07:30:13;6.30;;;1.27;;
68377;SDS011;55322;48.146;11.516;2022-07-29T07:32:38;5.18;;;1.40;;
68377;SDS011;55322;48.146;11.516;2022-07-29T07:35:04;5.47;;;1.57;;
68377;SDS011;55322;48.146;11.516;2022-07-29T07:37:31;5.28;;;1.40;;
68377;SDS011;55322;48.146;11.516;2022-07-29T07:39:57;4.83;;;1.40;;
68377;SDS011;55322;48.146;11.516;2022-07-29T07:42:23;7.00;;;1.17;;
68377;SDS011;55322;48.146;11.516;2022-07-29T07:44:48;5.33;;;1.43;;
68377;SDS011;55322;48.146;11.516;2022-07-29T07:47:17;5.20;;;1.30;;
68377;SDS011;55322;48.146;11.516;2022-07-29T07:49:45;6.15;;;1.10;;
68377;SDS011;55322;48.146;11.516;2022-07-29T07:52:11;5.47;;;1.45;;
68377;SDS011;55322;48.146;11.516;2022-07-29T07:54:36;5.83;;;1.30;;
68377;SDS011;55322;48.146;11.516;2022-07-29T07:57:02;6.60;;;1.37;;
68377;SDS011;55322;48.146;11.516;2022-07-29T07:59:27;4.60;;;1.23;;
68377;SDS011;55322;48.146;11.516;2022-07-29T08:01:52;4.57;;;1.20;;
68377;SDS011;55322;48.146;11.516;2022-07-29T08:04:18;4.20;;;1.30;;
68377;SDS011;55322;48.146;11.516;2022-07-29T08:06:43;7.07;;;1.50;;
68377;SDS011;55322;48.146;11.516;2022-07-29T08:09:08;4.77;;;1.10;;
68377;SDS011;55322;48.146;11.516;2022-07-29T08:11:34;4.17;;;1.20;;
68377;SDS011;55322;48.146;11.516;2022-07-29T08:13:59;5.90;;;1.43;;
68377;SDS011;55322;48.146;11.516;2022-07-29T08:16:26;6.43;;;1.48;;
68377;SDS011;55322;48.146;11.516;2022-07-29T08:18:51;5.38;;;1.40;;
68377;SDS011;55322;48.146;11.516;2022-07-29T08:21:21;7.40;;;1.30;;
68377;SDS011;55322;48.146;11.516;2022-07-29T08:23:47;6.18;;;1.50;;
68377;SDS011;55322;48.146;11.516;2022-07-29T08:26:17;6.10;;;1.73;;
68377;SDS011;55322;48.146;11.516;2022-07-29T08:28:44;4.88;;;1.52;;
68377;SDS011;55322;48.146;11.516;2022-07-29T08:31:10;4.57;;;1.50;;
68377;SDS011;55322;48.146;11.516;2022-07-29T08:33:37;4.85;;;1.42;;
68377;SDS011;55322;48.146;11.516;2022-07-29T08:36:02;5.33;;;1.57;;
68377;SDS011;55322;48.146;11.516;2022-07-29T08:38:28;6.25;;;1.80;;
68377;SDS011;55322;48.146;11.516;2022-07-29T08:40:53;5.10;;;1.80;;
68377;SDS011;55322;48.146;11.516;2022-07-29T08:43:19;4.88;;;1.83;;
68377;SDS011;55322;48.146;11.516;2022-07-29T08:45:45;5.97;;;1.97;;
68377;SDS011;55322;48.146;11.516;2022-07-29T08:48:13;4.57;;;1.70;;
68377;SDS011;55322;48.146;11.516;2022-07-29T08:50:41;5.15;;;2.10;;
68377;SDS011;55322;48.146;11.516;2022-07-29T08:53:07;4.60;;;1.60;;
68377;SDS011;55322;48.146;11.516;2022-07-29T08:55:35;4.90;;;1.67;;
68377;SDS011;55322;48.146;11.516;2022-07-29T08:58:01;4.88;;;1.77;;
68377;SDS011;55322;48.146;11.516;2022-07-29T09:00:27;4.70;;;1.63;;
68377;SDS011;55322;48.146;11.516;2022-07-29T09:02:56;5.85;;;1.60;;
68377;SDS011;55322;48.146;11.516;2022-07-29T09:05:22;4.85;;;1.73;;
68377;SDS011;55322;48.146;11.516;2022-07-29T09:07:49;6.38;;;1.70;;
68377;SDS011;55322;48.146;11.516;2022-07-29T09:10:15;6.82;;;1.75;;
68377;SDS011;55322;48.146;11.516;2022-07-29T09:12:41;5.50;;;1.77;;
68377;SDS011;55322;48.146;11.516;2022-07-29T09:15:07;5.13;;;1.90;;
68377;SDS011;55322;48.146;11.516;2022-07-29T09:17:45;8.00;;;1.93;;
68377;SDS011;55322;48.146;11.516;2022-07-29T09:20:13;9.73;;;2.08;;
68377;SDS011;55322;48.146;11.516;2022-07-29T09:22:41;5.60;;;1.95;;
68377;SDS011;55322;48.146;11.516;2022-07-29T09:25:07;5.33;;;1.70;;
68377;SDS011;55322;48.146;11.516;2022-07-29T09:27:32;6.88;;;2.00;;
68377;SDS011;55322;48.146;11.516;2022-07-29T09:30:03;5.90;;;2.00;;
68377;SDS011;55322;48.146;11.516;2022-07-29T09:32:31;5.15;;;1.77;;
68377;SDS011;55322;48.146;11.516;2022-07-29T09:35:24;5.82;;;2.00;;
68377;SDS011;55322;48.146;11.516;2022-07-29T09:37:50;5.95;;;1.80;;
68377;SDS011;55322;48.146;11.516;2022-07-29T09:40:16;5.23;;;2.00;;
68377;SDS011;55322;48.146;11.516;2022-07-29T09:42:44;5.00;;;1.80;;
68377;SDS011;55322;48.146;11.516;2022-07-29T09:45:10;7.75;;;2.00;;
68377;SDS011;55322;48.146;11.516;2022-07-29T09:47:45;6.53;;;2.10;;
68377;SDS011;55322;48.146;11.516;2022-07-29T09:50:14;6.27;;;2.20;;
68377;SDS011;55322;48.146;11.516;2022-07-29T09:52:47;5.57;;;1.67;;
68377;SDS011;55322;48.146;11.516;2022-07-29T09:55:13;6.78;;;2.20;;
68377;SDS011;55322;48.146;11.516;2022-07-29T09:57:39;8.20;;;1.87;;
68377;SDS011;55322;48.146;11.516;2022-07-29T10:00:05;6.40;;;2.00;;
68377;SDS011;55322;48.146;11.516;2022-07-29T10:02:37;5.65;;;1.80;;
68377;SDS011;55322;48.146;11.516;2022-07-29T10:05:05;7.32;;;2.10;;
68377;SDS011;55322;48.146;11.516;2022-07-29T10:07:48;5.00;;;1.92;;
68377;SDS011;55322;48.146;11.516;2022-07-29T10:10:26;6.65;;;1.95;;
68377;SDS011;55322;48.146;11.516;2022-07-29T10:12:54;5.83;;;2.00;;
68377;SDS011;55322;48.146;11.516;2022-07-29T10:15:24;7.25;;;2.40;;
68377;SDS011;55322;48.146;11.516;2022-07-29T10:17:51;5.78;;;2.40;;
68377;SDS011;55322;48.146;11.516;2022-07-29T10:20:17;5.60;;;2.10;;
68377;SDS011;55322;48.146;11.516;2022-07-29T10:22:44;7.00;;;2.55;;
68377;SDS011;55322;48.146;11.516;2022-07-29T10:25:11;6.40;;;2.10;;
68377;SDS011;55322;48.146;11.516;2022-07-29T10:27:38;5.05;;;2.15;;
68377;SDS011;55322;48.146;11.516;2022-07-29T10:30:04;6.15;;;1.92;;
68377;SDS011;55322;48.146;11.516;2022-07-29T10:32:34;6.15;;;2.00;;
68377;SDS011;55322;48.146;11.516;2022-07-29T10:37:37;6.90;;;2.30;;
68377;SDS011;55322;48.146;11.516;2022-07-29T10:42:59;5.75;;;2.42;;
68377;SDS011;55322;48.146;11.516;2022-07-29T10:45:34;5.55;;;2.22;;
68377;SDS011;55322;48.146;11.516;2022-07-29T10:48:03;6.93;;;2.20;;
68377;SDS011;55322;48.146;11.516;2022-07-29T10:50:51;7.85;;;2.17;;
68377;SDS011;55322;48.146;11.516;2022-07-29T10:53:24;5.40;;;2.45;;
68377;SDS011;55322;48.146;11.516;2022-07-29T10:55:50;5.57;;;1.90;;
68377;SDS011;55322;48.146;11.516;2022-07-29T10:58:17;5.00;;;2.08;;
68377;SDS011;55322;48.146;11.516;2022-07-29T11:00:49;7.03;;;2.20;;
68377;SDS011;55322;48.146;11.516;2022-07-29T11:06:06;6.47;;;2.35;;
68377;SDS011;55322;48.146;11.516;2022-07-29T11:08:32;7.80;;;2.50;;
68377;SDS011;55322;48.146;11.516;2022-07-29T11:16:13;6.20;;;2.22;;
68377;SDS011;55322;48.146;11.516;2022-07-29T11:21:35;5.53;;;2.40;;
68377;SDS011;55322;48.146;11.516;2022-07-29T11:24:11;7.17;;;2.30;;
68377;SDS011;55322;48.146;11.516;2022-07-29T11:26:37;5.45;;;2.30;;
68377;SDS011;55322;48.146;11.516;2022-07-29T11:29:14;5.67;;;2.53;;
68377;SDS011;55322;48.146;11.516;2022-07-29T11:31:44;7.88;;;2.38;;
68377;SDS011;55322;48.146;11.516;2022-07-29T11:34:21;5.43;;;2.25;;
68377;SDS011;55322;48.146;11.516;2022-07-29T11:39:35;5.70;;;2.10;;
68377;SDS011;55322;48.146;11.516;2022-07-29T11:47:21;4.97;;;1.92;;
68377;SDS011;55322;48.146;11.516;2022-07-29T11:49:46;8.13;;;2.10;;
68377;SDS011;55322;48.146;11.516;2022-07-29T11:52:12;5.17;;;2.00;;
68377;SDS011;55322;48.146;11.516;2022-07-29T11:54:38;7.15;;;2.22;;
68377;SDS011;55322;48.146;11.516;2022-07-29T11:57:07;4.90;;;2.10;;
68377;SDS011;55322;48.146;11.516;2022-07-29T11:59:38;9.13;;;2.20;;
68377;SDS011;55322;48.146;11.516;2022-07-29T12:02:06;7.32;;;2.20;;
68377;SDS011;55322;48.146;11.516;2022-07-29T12:04:31;5.90;;;2.07;;
68377;SDS011;55322;48.146;11.516;2022-07-29T12:06:57;8.07;;;2.33;;
68377;SDS011;55322;48.146;11.516;2022-07-29T12:09:23;6.30;;;2.13;;
68377;SDS011;55322;48.146;11.516;2022-07-29T12:11:49;5.53;;;2.10;;
68377;SDS011;55322;48.146;11.516;2022-07-29T12:16:51;6.13;;;1.90;;
68377;SDS011;55322;48.146;11.516;2022-07-29T12:19:16;6.67;;;2.07;;
68377;SDS011;55322;48.146;11.516;2022-07-29T12:21:45;7.37;;;2.13;;
68377;SDS011;55322;48.146;11.516;2022-07-29T12:24:11;7.90;;;2.15;;
68377;SDS011;55322;48.146;11.516;2022-07-29T12:26:48;9.70;;;2.60;;
68377;SDS011;55322;48.146;11.516;2022-07-29T12:29:17;4.97;;;1.90;;
68377;SDS011;55322;48.146;11.516;2022-07-29T12:31:43;6.28;;;1.88;;
68377;SDS011;55322;48.146;11.516;2022-07-29T12:34:10;7.82;;;2.17;;
68377;SDS011;55322;48.146;11.516;2022-07-29T12:36:36;5.32;;;2.00;;
68377;SDS011;55322;48.146;11.516;2022-07-29T12:39:02;6.73;;;2.13;;
68377;SDS011;55322;48.146;11.516;2022-07-29T12:41:28;6.80;;;1.98;;
68377;SDS011;55322;48.146;11.516;2022-07-29T12:43:54;9.20;;;2.40;;
68377;SDS011;55322;48.146;11.516;2022-07-29T12:46:20;7.97;;;1.97;;
68377;SDS011;55322;48.146;11.516;2022-07-29T12:48:49;6.60;;;2.00;;
68377;SDS011;55322;48.146;11.516;2022-07-29T12:51:25;7.40;;;1.90;;
68377;SDS011;55322;48.146;11.516;2022-07-29T12:54:04;7.65;;;1.90;;
68377;SDS011;55322;48.146;11.516;2022-07-29T12:56:35;7.40;;;2.20;;
68377;SDS011;55322;48.146;11.516;2022-07-29T13:01:57;6.60;;;2.40;;
68377;SDS011;55322;48.146;11.516;2022-07-29T13:04:28;8.97;;;1.83;;
68377;SDS011;55322;48.146;11.516;2022-07-29T13:06:58;5.57;;;1.90;;
68377;SDS011;55322;48.146;11.516;2022-07-29T13:09:35;6.28;;;1.90;;
68377;SDS011;55322;48.146;11.516;2022-07-29T13:12:05;7.93;;;2.15;;
68377;SDS011;55322;48.146;11.516;2022-07-29T13:17:03;5.73;;;2.00;;
68377;SDS011;55322;48.146;11.516;2022-07-29T13:20:11;7.05;;;2.10;;
68377;SDS011;55322;48.146;11.516;2022-07-29T13:22:24;6.95;;;1.90;;
68377;SDS011;55322;48.146;11.516;2022-07-29T13:24:56;5.75;;;1.95;;
68377;SDS011;55322;48.146;11.516;2022-07-29T13:27:27;9.52;;;2.35;;
68377;SDS011;55322;48.146;11.516;2022-07-29T13:29:55;6.43;;;2.07;;
68377;SDS011;55322;48.146;11.516;2022-07-29T13:32:22;7.88;;;2.38;;
68377;SDS011;55322;48.146;11.516;2022-07-29T13:34:49;10.73;;;2.40;;
68377;SDS011;55322;48.146;11.516;2022-07-29T13:37:15;10.67;;;2.40;;
68377;SDS011;55322;48.146;11.516;2022-07-29T13:39:41;9.70;;;2.13;;
68377;SDS011;55322;48.146;11.516;2022-07-29T13:42:07;13.02;;;2.53;;
68377;SDS011;55322;48.146;11.516;2022-07-29T13:44:33;7.63;;;2.10;;
68377;SDS011;55322;48.146;11.516;2022-07-29T13:46:59;8.35;;;1.90;;
68377;SDS011;55322;48.146;11.516;2022-07-29T13:49:25;8.63;;;2.20;;
68377;SDS011;55322;48.146;11.516;2022-07-29T13:51:51;5.65;;;1.85;;
68377;SDS011;55322;48.146;11.516;2022-07-29T13:54:16;8.03;;;2.20;;
68377;SDS011;55322;48.146;11.516;2022-07-29T13:56:41;5.90;;;2.03;;
68377;SDS011;55322;48.146;11.516;2022-07-29T13:59:07;4.83;;;1.50;;
68377;SDS011;55322;48.146;11.516;2022-07-29T14:01:33;5.20;;;1.80;;
68377;SDS011;55322;48.146;11.516;2022-07-29T14:03:59;5.65;;;1.70;;
68377;SDS011;55322;48.146;11.516;2022-07-29T14:06:24;7.50;;;1.63;;
68377;SDS011;55322;48.146;11.516;2022-07-29T14:08:50;4.87;;;1.63;;
68377;SDS011;55322;48.146;11.516;2022-07-29T14:11:15;5.03;;;1.67;;
68377;SDS011;55322;48.146;11.516;2022-07-29T14:13:40;5.13;;;1.50;;
68377;SDS011;55322;48.146;11.516;2022-07-29T14:16:06;5.83;;;1.60;;
68377;SDS011;55322;48.146;11.516;2022-07-29T14:18:32;5.40;;;1.73;;
68377;SDS011;55322;48.146;11.516;2022-07-29T14:20:57;7.63;;;2.08;;
68377;SDS011;55322;48.146;11.516;2022-07-29T14:23:22;6.63;;;2.10;;
68377;SDS011;55322;48.146;11.516;2022-07-29T14:25:48;5.60;;;1.70;;
68377;SDS011;55322;48.146;11.516;2022-07-29T14:28:13;6.70;;;2.20;;
68377;SDS011;55322;48.146;11.516;2022-07-29T14:30:38;10.70;;;2.03;;
68377;SDS011;55322;48.146;11.516;2022-07-29T14:33:04;6.53;;;1.70;;
68377;SDS011;55322;48.146;11.516;2022-07-29T14:35:30;5.03;;;1.60;;
68377;SDS011;55322;48.146;11.516;2022-07-29T14:37:55;6.73;;;2.00;;
68377;SDS011;55322;48.146;11.516;2022-07-29T14:40:20;8.33;;;1.97;;
68377;SDS011;55322;48.146;11.516;2022-07-29T14:42:46;8.95;;;2.30;;
68377;SDS011;55322;48.146;11.516;2022-07-29T14:45:11;7.50;;;2.10;;
68377;SDS011;55322;48.146;11.516;2022-07-29T14:47:37;13.47;;;2.97;;
68377;SDS011;55322;48.146;11.516;2022-07-29T14:50:03;9.88;;;2.22;;
68377;SDS011;55322;48.146;11.516;2022-07-29T14:52:30;7.75;;;2.40;;
68377;SDS011;55322;48.146;11.516;2022-07-29T14:54:55;7.43;;;2.23;;
68377;SDS011;55322;48.146;11.516;2022-07-29T14:57:20;8.97;;;1.90;;
68377;SDS011;55322;48.146;11.516;2022-07-29T14:59:46;7.10;;;2.00;;
68377;SDS011;55322;48.146;11.516;2022-07-29T15:02:11;11.47;;;1.90;;
68377;SDS011;55322;48.146;11.516;2022-07-29T15:04:36;6.93;;;2.13;;
68377;SDS011;55322;48.146;11.516;2022-07-29T15:07:02;5.33;;;2.00;;
68377;SDS011;55322;48.146;11.516;2022-07-29T15:09:28;6.38;;;2.13;;
68377;SDS011;55322;48.146;11.516;2022-07-29T15:11:53;6.87;;;2.00;;
68377;SDS011;55322;48.146;11.516;2022-07-29T15:14:18;6.78;;;2.08;;
68377;SDS011;55322;48.146;11.516;2022-07-29T15:16:44;5.57;;;2.13;;
68377;SDS011;55322;48.146;11.516;2022-07-29T15:19:10;7.35;;;1.75;;
68377;SDS011;55322;48.146;11.516;2022-07-29T15:21:36;5.53;;;2.10;;
68377;SDS011;55322;48.146;11.516;2022-07-29T15:24:01;6.00;;;2.00;;